createdAt,value
2022-12-23T00:01:26.410Z,9.80
2022-12-23T00:03:59.907Z,9.90
2022-12-23T00:06:28.821Z,9.90
2022-12-23T00:08:59.413Z,9.90
2022-12-23T00:11:28.962Z,9.90
2022-12-23T00:14:20.878Z,10.00
2022-12-23T00:16:45.744Z,10.00
2022-12-23T00:19:14.295Z,10.00
2022-12-23T00:21:42.861Z,10.00
2022-12-23T00:24:12.989Z,10.00
2022-12-23T00:26:41.513Z,10.00
2022-12-23T00:29:09.970Z,10.00
2022-12-23T00:31:38.541Z,10.00
2022-12-23T00:34:07.052Z,10.00
2022-12-23T00:36:37.494Z,10.00
2022-12-23T00:39:23.826Z,10.00
2022-12-23T00:42:10.143Z,10.10
2022-12-23T00:44:38.700Z,10.00
2022-12-23T00:47:07.242Z,10.00
2022-12-23T00:49:44.619Z,10.00
2022-12-23T00:52:16.405Z,10.00
2022-12-23T00:54:44.943Z,10.00
2022-12-23T00:57:13.539Z,10.00
2022-12-23T00:59:42.140Z,10.00
2022-12-23T01:02:30.759Z,10.00
2022-12-23T01:05:17.158Z,10.00
2022-12-23T01:07:45.764Z,10.00
2022-12-23T01:10:14.479Z,10.40
2022-12-23T01:12:43.191Z,9.50
2022-12-23T01:15:11.839Z,9.90
2022-12-23T01:22:37.629Z,10.10
2022-12-23T01:25:06.627Z,10.10
2022-12-23T01:27:35.273Z,10.00
2022-12-23T01:30:05.655Z,10.10
2022-12-23T01:32:34.196Z,10.10
2022-12-23T01:35:02.730Z,10.10
2022-12-23T01:37:31.182Z,10.10
2022-12-23T01:39:59.718Z,10.00
2022-12-23T01:42:47.349Z,9.90
2022-12-23T01:45:19.458Z,9.80
2022-12-23T01:47:54.077Z,9.80
2022-12-23T01:50:25.724Z,9.80
2022-12-23T01:53:09.327Z,9.80
2022-12-23T01:55:43.587Z,9.80
2022-12-23T01:58:17.943Z,9.80
2022-12-23T02:01:04.071Z,9.80
2022-12-23T02:03:45.056Z,9.80
2022-12-23T02:06:34.592Z,9.80
2022-12-23T02:09:18.517Z,9.70
2022-12-23T02:12:09.679Z,9.80
2022-12-23T02:15:17.334Z,9.80
2022-12-23T02:18:03.979Z,9.80
2022-12-23T02:20:35.602Z,9.80
2022-12-23T02:23:41.674Z,9.80
2022-12-23T02:26:31.122Z,9.80
2022-12-23T02:29:11.428Z,9.80
2022-12-23T02:31:51.696Z,9.80
2022-12-23T02:34:35.449Z,9.90
2022-12-23T02:37:12.900Z,9.90
2022-12-23T02:39:44.570Z,9.90
2022-12-23T02:42:16.187Z,9.90
2022-12-23T02:44:56.649Z,9.90
2022-12-23T02:47:28.262Z,9.90
2022-12-23T02:50:00.510Z,9.90
2022-12-23T02:52:32.153Z,9.90
2022-12-23T02:55:03.720Z,9.90
2022-12-23T02:57:40.927Z,9.90
2022-12-23T03:00:10.681Z,10.00
2022-12-23T03:02:41.637Z,10.00
2022-12-23T03:05:35.763Z,10.00
2022-12-23T03:08:07.524Z,10.00
2022-12-23T03:10:54.064Z,10.00
2022-12-23T03:13:31.108Z,10.00
2022-12-23T03:16:14.617Z,10.00
2022-12-23T03:19:03.556Z,10.00
2022-12-23T03:21:38.085Z,10.00
2022-12-23T03:24:15.372Z,9.90
2022-12-23T03:27:04.986Z,9.90
2022-12-23T03:29:45.262Z,9.90
2022-12-23T03:32:15.598Z,9.90
2022-12-23T03:34:47.202Z,9.90
2022-12-23T03:37:18.561Z,9.90
2022-12-23T03:39:55.994Z,9.90
2022-12-23T03:42:39.065Z,9.90
2022-12-23T03:45:38.595Z,9.90
2022-12-23T03:47:58.837Z,9.90
2022-12-23T03:50:27.962Z,9.90
2022-12-23T03:53:05.294Z,9.80
2022-12-23T03:55:37.250Z,9.80
2022-12-23T03:58:11.434Z,9.70
2022-12-23T04:00:51.616Z,9.70
2022-12-23T04:03:38.210Z,9.70
2022-12-23T04:06:09.898Z,9.70
2022-12-23T04:08:39.621Z,9.80
2022-12-23T04:11:08.820Z,9.80
2022-12-23T04:13:37.447Z,9.80
2022-12-23T04:16:07.080Z,9.90
2022-12-23T04:18:35.678Z,9.90
2022-12-23T04:21:04.339Z,9.90
2022-12-23T04:23:32.978Z,9.90
2022-12-23T04:26:01.627Z,9.90
2022-12-23T04:28:30.127Z,9.80
2022-12-23T04:30:58.793Z,9.80
2022-12-23T04:33:27.419Z,9.80
2022-12-23T04:35:55.929Z,9.80
2022-12-23T04:38:24.610Z,9.80
2022-12-23T04:40:53.172Z,9.90
2022-12-23T04:43:21.682Z,9.90
2022-12-23T04:45:53.440Z,9.90
2022-12-23T04:48:22.035Z,9.90
2022-12-23T04:50:50.549Z,9.90
2022-12-23T04:53:19.081Z,9.90
2022-12-23T04:55:52.045Z,9.70
2022-12-23T04:58:22.233Z,9.70
2022-12-23T05:00:50.880Z,9.80
2022-12-23T05:03:19.565Z,9.80
2022-12-23T05:05:48.630Z,9.80
2022-12-23T05:08:17.328Z,9.80
2022-12-23T05:10:48.757Z,9.80
2022-12-23T05:13:17.347Z,9.80
2022-12-23T05:15:46.918Z,9.80
2022-12-23T05:18:15.540Z,9.70
2022-12-23T05:20:45.927Z,9.70
2022-12-23T05:23:14.659Z,9.70
2022-12-23T05:25:43.137Z,9.70
2022-12-23T05:28:13.931Z,9.80
2022-12-23T05:30:42.435Z,9.70
2022-12-23T05:33:11.135Z,9.80
2022-12-23T05:35:39.733Z,9.70
2022-12-23T05:38:08.271Z,9.70
2022-12-23T05:40:38.440Z,9.80
2022-12-23T05:43:07.145Z,9.70
2022-12-23T05:45:39.041Z,9.80
2022-12-23T05:48:09.312Z,9.80
2022-12-23T05:50:38.455Z,9.80
2022-12-23T05:53:07.651Z,9.80
2022-12-23T05:55:37.046Z,9.80
2022-12-23T05:58:05.673Z,9.80
2022-12-23T06:00:34.873Z,9.80
2022-12-23T06:03:03.818Z,9.80
2022-12-23T06:05:32.552Z,9.70
2022-12-23T06:08:01.118Z,9.70
2022-12-23T06:10:30.032Z,9.80
2022-12-23T06:12:58.751Z,9.70
2022-12-23T06:15:27.289Z,9.70
2022-12-23T06:17:57.140Z,9.80
2022-12-23T06:20:25.680Z,9.80
2022-12-23T06:22:54.235Z,9.80
2022-12-23T06:25:22.908Z,9.80
2022-12-23T06:27:51.450Z,9.70
2022-12-23T06:30:20.088Z,9.70
2022-12-23T06:32:48.611Z,9.70
2022-12-23T06:35:17.696Z,9.70
2022-12-23T06:37:46.270Z,9.70
2022-12-23T06:40:15.045Z,9.70
2022-12-23T06:42:43.549Z,9.70
2022-12-23T06:45:12.395Z,9.70
2022-12-23T06:47:40.859Z,9.70
2022-12-23T06:50:09.931Z,9.70
2022-12-23T06:52:38.514Z,9.60
2022-12-23T06:55:07.573Z,9.60
2022-12-23T06:57:36.021Z,9.70
2022-12-23T07:00:06.436Z,9.70
2022-12-23T07:02:35.254Z,9.70
2022-12-23T07:05:04.204Z,9.70
2022-12-23T07:07:34.113Z,9.60
2022-12-23T07:10:04.215Z,9.70
2022-12-23T07:12:32.832Z,9.70
2022-12-23T07:15:01.395Z,9.70
2022-12-23T07:17:30.032Z,9.70
2022-12-23T07:19:58.657Z,9.70
2022-12-23T07:22:27.267Z,9.70
2022-12-23T07:24:55.875Z,9.70
2022-12-23T07:27:24.562Z,9.70
2022-12-23T07:29:53.061Z,9.70
2022-12-23T07:32:21.720Z,9.70
2022-12-23T07:34:50.227Z,9.70
2022-12-23T07:37:18.905Z,9.70
2022-12-23T07:39:47.439Z,9.70
2022-12-23T07:42:43.683Z,9.70
2022-12-23T07:44:46.372Z,9.70
2022-12-23T07:47:15.456Z,9.70
2022-12-23T07:49:45.667Z,9.70
2022-12-23T07:52:14.185Z,9.70
2022-12-23T07:54:43.584Z,9.70
2022-12-23T07:57:12.448Z,9.70
2022-12-23T07:59:40.991Z,9.70
2022-12-23T08:02:11.848Z,9.80
2022-12-23T08:04:45.754Z,9.70
2022-12-23T08:07:11.702Z,9.70
2022-12-23T08:09:41.454Z,9.80
2022-12-23T08:12:10.334Z,9.80
2022-12-23T08:14:38.940Z,9.80
2022-12-23T08:17:07.843Z,9.70
2022-12-23T08:19:36.479Z,9.70
2022-12-23T08:22:05.089Z,9.70
2022-12-23T08:24:33.638Z,9.60
2022-12-23T08:27:02.152Z,9.60
2022-12-23T08:29:36.040Z,9.60
2022-12-23T08:32:00.893Z,9.60
2022-12-23T08:34:29.506Z,9.60
2022-12-23T08:36:58.041Z,9.60
2022-12-23T08:39:26.673Z,9.60
2022-12-23T08:41:55.258Z,9.60
2022-12-23T08:44:25.683Z,9.50
2022-12-23T08:46:55.982Z,9.60
2022-12-23T08:49:24.690Z,9.60
2022-12-23T08:51:53.134Z,9.60
2022-12-23T08:54:23.284Z,9.60
2022-12-23T08:56:51.827Z,9.60
2022-12-23T08:59:20.331Z,9.60
2022-12-23T09:01:49.249Z,9.60
2022-12-23T09:04:17.874Z,9.60
2022-12-23T09:06:46.507Z,9.60
2022-12-23T09:09:16.504Z,9.60
2022-12-23T09:11:45.209Z,9.70
2022-12-23T09:14:16.145Z,9.70
2022-12-23T09:16:44.405Z,9.70
2022-12-23T09:19:13.012Z,9.70
2022-12-23T09:21:41.631Z,9.70
2022-12-23T09:24:10.581Z,9.70
2022-12-23T09:26:39.127Z,9.70
2022-12-23T09:29:07.643Z,9.70
2022-12-23T09:31:37.858Z,9.70
2022-12-23T09:34:06.695Z,9.70
2022-12-23T09:36:35.378Z,9.80
2022-12-23T09:39:04.153Z,9.80
2022-12-23T09:41:55.290Z,9.80
2022-12-23T09:44:32.588Z,9.80
2022-12-23T09:47:04.188Z,9.70
2022-12-23T09:49:34.482Z,9.80
2022-12-23T09:52:05.761Z,9.80
2022-12-23T09:54:40.032Z,9.80
2022-12-23T09:57:26.609Z,9.80
2022-12-23T10:00:07.147Z,9.80
2022-12-23T10:02:55.374Z,9.80
2022-12-23T10:05:49.729Z,9.80
2022-12-23T10:08:24.193Z,9.80
2022-12-23T10:11:01.626Z,9.90
2022-12-23T10:13:36.126Z,9.90
2022-12-23T10:16:16.046Z,9.90
2022-12-23T10:18:59.511Z,9.90
2022-12-23T10:21:47.777Z,9.90
2022-12-23T10:24:25.279Z,10.00
2022-12-23T10:26:56.257Z,10.00
2022-12-23T10:29:27.565Z,10.00
2022-12-23T10:31:59.194Z,10.00
2022-12-23T10:34:48.847Z,10.00
2022-12-23T10:37:29.246Z,10.00
2022-12-23T10:40:19.989Z,10.00
2022-12-23T10:42:51.633Z,10.00
2022-12-23T10:45:38.738Z,10.00
2022-12-23T10:48:28.729Z,10.00
2022-12-23T10:51:02.996Z,10.00
2022-12-23T10:53:36.617Z,10.00
2022-12-23T10:56:06.494Z,10.00
2022-12-23T10:58:37.928Z,10.00
2022-12-23T11:01:16.190Z,10.00
2022-12-23T11:03:58.405Z,10.00
2022-12-23T11:06:33.065Z,10.10
2022-12-23T11:09:00.693Z,10.10
2022-12-23T11:11:48.537Z,10.20
2022-12-23T11:14:37.811Z,10.30
2022-12-23T11:17:08.455Z,10.30
2022-12-23T11:19:37.076Z,10.30
2022-12-23T11:22:05.592Z,10.20
2022-12-23T11:24:39.638Z,10.30
2022-12-23T11:27:10.268Z,10.30
2022-12-23T11:29:41.748Z,10.20
2022-12-23T11:32:22.297Z,10.10
2022-12-23T11:34:51.601Z,10.00
2022-12-23T11:37:40.685Z,10.10
2022-12-23T11:40:13.007Z,10.20
2022-12-23T11:42:42.302Z,10.20
2022-12-23T11:45:11.005Z,10.20
2022-12-23T11:47:41.658Z,10.20
2022-12-23T11:50:37.421Z,10.20
2022-12-23T11:53:24.049Z,10.30
2022-12-23T11:56:07.341Z,10.40
2022-12-23T11:58:41.737Z,10.40
2022-12-23T12:01:13.349Z,10.30
2022-12-23T12:03:45.297Z,10.20
2022-12-23T12:06:17.026Z,10.30
2022-12-23T12:08:48.651Z,10.10
2022-12-23T12:11:19.713Z,10.00
2022-12-23T12:13:53.626Z,10.10
2022-12-23T12:16:33.516Z,10.10
2022-12-23T12:19:13.844Z,10.20
2022-12-23T12:21:42.394Z,10.20
2022-12-23T12:24:19.165Z,10.20
2022-12-23T12:26:51.026Z,10.10
2022-12-23T12:29:42.014Z,10.10
2022-12-23T12:32:19.244Z,10.10
2022-12-23T12:34:59.707Z,10.20
2022-12-23T12:37:34.342Z,10.20
2022-12-23T12:40:05.984Z,10.30
2022-12-23T12:42:39.548Z,10.30
2022-12-23T12:45:19.396Z,10.30
2022-12-23T12:47:56.801Z,10.30
2022-12-23T12:50:33.263Z,10.10
2022-12-23T12:53:04.845Z,10.00
2022-12-23T12:55:36.297Z,10.00
2022-12-23T12:58:05.545Z,10.10
2022-12-23T13:00:37.102Z,10.00
2022-12-23T13:03:08.691Z,10.00
2022-12-23T13:06:02.794Z,10.10
2022-12-23T13:08:37.250Z,10.00
2022-12-23T13:11:28.744Z,10.00
2022-12-23T13:14:25.255Z,10.00
2022-12-23T13:17:20.655Z,10.00
2022-12-23T13:20:25.185Z,9.90
2022-12-23T13:23:06.319Z,9.90
2022-12-23T13:25:30.301Z,9.90
2022-12-23T13:28:07.009Z,9.90
2022-12-23T13:30:38.669Z,10.00
2022-12-23T13:33:24.668Z,10.00
2022-12-23T13:36:17.066Z,10.10
2022-12-23T13:38:54.828Z,10.00
2022-12-23T13:41:39.426Z,10.00
2022-12-23T13:44:10.689Z,9.90
2022-12-23T13:47:00.308Z,9.90
2022-12-23T13:49:37.408Z,9.90
2022-12-23T13:52:27.089Z,9.90
2022-12-23T13:55:04.239Z,10.00
2022-12-23T13:57:44.440Z,9.90
2022-12-23T14:00:21.687Z,9.90
2022-12-23T14:15:42.261Z,9.70
2022-12-23T14:18:29.021Z,9.90
2022-12-23T14:24:02.499Z,9.80
2022-12-23T14:26:30.217Z,9.80
2022-12-23T14:29:18.224Z,9.70
2022-12-23T14:31:49.850Z,9.70
2022-12-23T14:34:24.341Z,9.60
2022-12-23T14:37:24.297Z,9.60
2022-12-23T14:39:53.706Z,9.70
2022-12-23T14:42:42.851Z,9.70
2022-12-23T14:45:23.283Z,9.70
2022-12-23T14:47:51.801Z,9.40
2022-12-23T14:50:39.514Z,9.40
2022-12-23T14:53:28.266Z,9.50
2022-12-23T14:56:17.581Z,9.50
2022-12-23T14:59:01.460Z,9.50
2022-12-23T15:01:56.540Z,9.40
2022-12-23T15:04:28.481Z,9.50
2022-12-23T15:09:41.356Z,9.50
2022-12-23T15:12:18.274Z,9.50
2022-12-23T15:14:55.803Z,9.40
2022-12-23T15:17:30.724Z,9.50
2022-12-23T15:20:14.514Z,9.50
2022-12-23T15:22:44.999Z,9.50
2022-12-23T15:25:31.091Z,9.40
2022-12-23T15:28:02.375Z,9.40
2022-12-23T15:30:37.158Z,9.40
2022-12-23T15:33:35.029Z,9.40
2022-12-23T15:38:12.705Z,9.30
2022-12-23T15:40:41.260Z,9.20
2022-12-23T15:43:19.166Z,9.20
2022-12-23T15:45:47.743Z,9.20
2022-12-23T15:48:34.643Z,9.20
2022-12-23T15:51:21.967Z,9.10
2022-12-23T15:53:47.891Z,9.20
2022-12-23T15:56:25.944Z,9.20
2022-12-23T15:58:56.214Z,9.20
2022-12-23T16:01:26.359Z,9.10
2022-12-23T16:03:58.441Z,9.10
2022-12-23T16:06:35.901Z,9.10
2022-12-23T16:09:22.644Z,9.10
2022-12-23T16:12:00.576Z,9.00
2022-12-23T16:14:35.437Z,9.00
2022-12-23T16:17:13.280Z,9.00
2022-12-23T16:19:53.440Z,9.00
2022-12-23T16:22:25.054Z,8.90
2022-12-23T16:27:38.420Z,8.90
2022-12-23T16:30:19.119Z,9.70
2022-12-23T16:32:50.803Z,9.00
2022-12-23T16:35:31.417Z,8.90
2022-12-23T16:40:32.440Z,10.30
2022-12-23T16:43:01.046Z,9.30
2022-12-23T16:45:31.128Z,9.40
2022-12-23T16:50:31.094Z,10.10
2022-12-23T16:52:59.649Z,10.40
2022-12-23T16:55:29.333Z,10.40
2022-12-23T16:57:57.872Z,10.50
2022-12-23T17:00:26.532Z,10.60
2022-12-23T17:02:56.065Z,10.70
2022-12-23T17:07:52.988Z,10.80
2022-12-23T17:10:23.157Z,10.90
2022-12-23T17:12:51.843Z,11.00
2022-12-23T17:15:23.731Z,11.10
2022-12-23T17:17:53.590Z,11.10
2022-12-23T17:20:25.431Z,11.20
2022-12-23T17:22:56.111Z,11.30
2022-12-23T17:25:26.678Z,11.20
2022-12-23T17:30:25.937Z,11.40
2022-12-23T17:32:57.604Z,11.30
2022-12-23T17:37:54.926Z,11.10
2022-12-23T17:47:56.494Z,11.30
2022-12-23T17:50:25.462Z,11.30
2022-12-23T18:05:31.964Z,11.30
2022-12-23T18:08:02.243Z,11.30
2022-12-23T18:10:33.886Z,11.30
2022-12-23T18:13:08.656Z,11.30
2022-12-23T18:23:28.049Z,11.20
2022-12-23T18:25:57.023Z,11.20
2022-12-23T18:28:26.115Z,11.20
2022-12-23T18:30:56.895Z,11.20
2022-12-23T18:33:27.413Z,11.20
2022-12-23T21:57:04.786Z,10.50
2022-12-23T21:59:35.448Z,10.40
2022-12-23T22:41:53.737Z,10.20
2022-12-23T22:44:22.689Z,10.30
